Time,TemperatureF,DewpointF,PressureIn,WindDirection,WindDirectionDegrees,WindSpeedMPH,WindSpeedGustMPH,Humidity,HourlyPrecipIn,Conditions,Clouds,dailyrainin,SoftwareType,DateUTC
2013-01-23 00:03:00,47.7,42.8,30.03,South,180,0.0,0.0,83,0.00,,,0.00,LWC V1.00 B64,2013-01-23 08:03:00,
2013-01-23 00:08:00,47.7,42.8,30.03,South,180,0.0,1.0,83,0.00,,,0.00,LWC V1.00 B64,2013-01-23 08:08:00,
2013-01-23 00:13:00,47.8,42.9,30.03,South,180,0.0,1.0,83,0.00,,,0.00,LWC V1.00 B64,2013-01-23 08:13:00,
2013-01-23 00:18:00,47.7,43.1,30.02,South,180,0.0,0.0,84,0.00,,,0.00,LWC V1.00 B64,2013-01-23 08:18:00,
2013-01-23 00:23:00,47.6,43.0,30.02,South,180,0.0,0.0,84,0.00,,,0.00,LWC V1.00 B64,2013-01-23 08:23:00,
2013-01-23 00:28:00,47.6,42.7,30.02,South,180,0.0,0.0,83,0.00,,,0.00,LWC V1.00 B64,2013-01-23 08:28:00,
2013-01-23 00:33:00,47.7,42.8,30.03,South,180,0.0,0.0,83,0.00,,,0.00,LWC V1.00 B64,2013-01-23 08:33:00,
2013-01-23 00:38:00,47.7,42.8,30.03,South,180,0.0,0.0,83,0.00,,,0.00,LWC V1.00 B64,2013-01-23 08:38:00,
2013-01-23 00:43:00,47.8,42.9,30.02,South,180,0.0,1.0,83,0.00,,,0.00,LWC V1.00 B64,2013-01-23 08:43:00,
2013-01-23 00:48:00,48.1,42.9,30.02,South,179,0.0,0.0,82,0.00,,,0.00,LWC V1.00 B64,2013-01-23 08:48:00,
2013-01-23 00:53:00,48.2,43.3,30.02,South,179,0.0,0.0,83,0.00,,,0.00,LWC V1.00 B64,2013-01-23 08:53:00,
2013-01-23 00:58:00,48.1,43.5,30.02,South,180,0.0,0.0,84,0.00,,,0.00,LWC V1.00 B64,2013-01-23 08:58:00,
2013-01-23 01:03:00,48.0,43.4,30.01,South,180,0.0,0.0,84,0.00,,,0.00,LWC V1.00 B64,2013-01-23 09:03:00,
2013-01-23 01:09:00,47.9,43.3,30.02,South,179,0.0,0.0,84,0.00,,,0.00,LWC V1.00 B64,2013-01-23 09:09:00,
2013-01-23 01:14:00,47.8,43.2,30.01,South,179,0.0,1.0,84,0.00,,,0.00,LWC V1.00 B64,2013-01-23 09:14:00,
2013-01-23 01:19:00,47.4,43.1,30.00,South,180,0.0,0.0,85,0.00,,,0.00,LWC V1.00 B64,2013-01-23 09:19:00,
2013-01-23 01:24:00,47.2,42.9,30.01,South,180,0.0,0.0,85,0.00,,,0.00,LWC V1.00 B64,2013-01-23 09:24:00,
2013-01-23 01:29:00,47.0,42.7,30.01,South,180,0.0,1.0,85,0.00,,,0.00,LWC V1.00 B64,2013-01-23 09:29:00,
2013-01-23 01:34:00,47.2,42.6,30.00,South,180,0.0,0.0,84,0.00,,,0.00,LWC V1.00 B64,2013-01-23 09:34:00,
2013-01-23 01:39:00,47.4,42.5,30.00,South,180,1.0,1.0,83,0.00,,,0.00,LWC V1.00 B64,2013-01-23 09:39:00,
2013-01-23 01:44:00,47.7,42.8,30.00,South,180,0.0,0.0,83,0.00,,,0.00,LWC V1.00 B64,2013-01-23 09:44:00,
2013-01-23 01:49:00,47.9,43.0,30.01,South,179,0.0,0.0,83,0.00,,,0.00,LWC V1.00 B64,2013-01-23 09:49:00,
2013-01-23 01:54:00,47.9,43.0,30.01,South,179,0.0,0.0,83,0.00,,,0.00,LWC V1.00 B64,2013-01-23 09:54:00,
2013-01-23 01:59:00,48.2,42.6,30.01,South,180,0.0,0.0,81,0.00,,,0.00,LWC V1.00 B64,2013-01-23 09:59:00,
2013-01-23 02:04:00,48.6,42.7,30.01,South,180,0.0,0.0,80,0.00,,,0.00,LWC V1.00 B64,2013-01-23 10:04:00,
2013-01-23 02:09:00,48.9,42.7,30.00,South,179,0.0,0.0,79,0.00,,,0.00,LWC V1.00 B64,2013-01-23 10:09:00,
2013-01-23 02:14:00,49.1,42.9,30.00,South,180,0.0,0.0,79,0.00,,,0.00,LWC V1.00 B64,2013-01-23 10:14:00,
2013-01-23 02:19:00,49.1,42.5,30.00,South,180,0.0,0.0,78,0.00,,,0.00,LWC V1.00 B64,2013-01-23 10:19:00,
2013-01-23 02:24:00,49.1,43.2,30.00,South,179,0.0,0.0,80,0.00,,,0.00,LWC V1.00 B64,2013-01-23 10:24:00,
2013-01-23 02:29:00,49.1,42.9,30.00,South,179,0.0,0.0,79,0.00,,,0.00,LWC V1.00 B64,2013-01-23 10:29:00,
2013-01-23 02:34:00,49.1,42.5,30.00,South,180,0.0,0.0,78,0.00,,,0.00,LWC V1.00 B64,2013-01-23 10:34:00,
2013-01-23 02:39:00,49.2,43.0,30.00,South,179,0.0,0.0,79,0.00,,,0.00,LWC V1.00 B64,2013-01-23 10:39:00,
2013-01-23 02:44:00,49.4,42.8,30.00,South,179,0.0,1.0,78,0.00,,,0.00,LWC V1.00 B64,2013-01-23 10:44:00,
2013-01-23 02:49:00,49.7,42.4,29.99,South,179,0.0,1.0,76,0.00,,,0.00,LWC V1.00 B64,2013-01-23 10:49:00,
2013-01-23 02:54:00,50.2,42.9,29.98,South,180,0.0,0.0,76,0.00,,,0.00,LWC V1.00 B64,2013-01-23 10:54:00,
2013-01-23 02:59:00,50.1,43.8,29.98,South,179,0.0,0.0,79,0.00,,,0.00,LWC V1.00 B64,2013-01-23 10:59:00,
2013-01-23 03:04:00,49.9,44.0,30.00,South,180,0.0,0.0,80,0.00,,,0.00,LWC V1.00 B64,2013-01-23 11:04:00,
2013-01-23 03:09:00,49.5,43.6,30.00,South,180,0.0,1.0,80,0.00,,,0.00,LWC V1.00 B64,2013-01-23 11:09:00,
2013-01-23 03:14:00,49.2,43.3,29.99,South,171,2.0,3.0,80,0.00,,,0.00,LWC V1.00 B64,2013-01-23 11:14:00,
2013-01-23 03:19:00,49.5,42.9,29.99,SE,139,1.0,1.0,78,0.00,,,0.00,LWC V1.00 B64,2013-01-23 11:19:00,
2013-01-23 03:24:00,50.0,42.7,29.99,SE,138,0.0,0.0,76,0.00,,,0.00,LWC V1.00 B64,2013-01-23 11:24:00,
2013-01-23 03:29:00,49.9,43.0,29.99,SE,139,0.0,1.0,77,0.00,,,0.00,LWC V1.00 B64,2013-01-23 11:29:00,
2013-01-23 03:35:00,49.6,43.4,29.98,SE,138,0.0,0.0,79,0.00,,,0.00,LWC V1.00 B64,2013-01-23 11:35:00,
2013-01-23 03:40:00,49.2,43.0,29.98,SE,138,0.0,0.0,79,0.00,,,0.00,LWC V1.00 B64,2013-01-23 11:40:00,
2013-01-23 03:45:00,49.0,42.8,29.97,SE,139,1.0,1.0,79,0.00,,,0.00,LWC V1.00 B64,2013-01-23 11:45:00,
2013-01-23 03:50:00,48.9,43.0,29.98,SE,139,0.0,0.0,80,0.00,,,0.00,LWC V1.00 B64,2013-01-23 11:50:00,
2013-01-23 03:55:00,48.7,42.2,29.99,SE,139,0.0,0.0,78,0.00,,,0.00,LWC V1.00 B64,2013-01-23 11:55:00,
2013-01-23 04:00:00,48.7,42.2,29.99,SE,138,0.0,0.0,78,0.00,,,0.00,LWC V1.00 B64,2013-01-23 12:00:00,
2013-01-23 04:05:00,48.7,41.8,29.99,SE,138,0.0,0.0,77,0.00,,,0.00,LWC V1.00 B64,2013-01-23 12:05:00,
2013-01-23 04:10:00,48.8,41.6,29.99,SE,139,0.0,2.0,76,0.00,,,0.00,LWC V1.00 B64,2013-01-23 12:10:00,
2013-01-23 04:15:00,49.1,41.9,29.98,SE,139,0.0,1.0,76,0.00,,,0.00,LWC V1.00 B64,2013-01-23 12:15:00,
2013-01-23 04:20:00,49.5,41.9,29.98,SE,139,0.0,2.0,75,0.00,,,0.00,LWC V1.00 B64,2013-01-23 12:20:00,
2013-01-23 04:25:00,49.7,42.1,29.97,SE,140,0.0,1.0,75,0.00,,,0.00,LWC V1.00 B64,2013-01-23 12:25:00,
2013-01-23 04:30:00,49.7,42.4,29.98,SE,140,0.0,0.0,76,0.00,,,0.00,LWC V1.00 B64,2013-01-23 12:30:00,
2013-01-23 04:35:00,49.4,42.2,29.98,SE,140,0.0,0.0,76,0.00,,,0.00,LWC V1.00 B64,2013-01-23 12:35:00,
2013-01-23 04:40:00,49.3,41.7,29.98,SE,140,0.0,1.0,75,0.00,,,0.00,LWC V1.00 B64,2013-01-23 12:40:00,
2013-01-23 04:45:00,49.3,41.4,29.98,SE,140,0.0,0.0,74,0.00,,,0.00,LWC V1.00 B64,2013-01-23 12:45:00,
2013-01-23 04:50:00,49.4,41.1,29.98,SE,140,0.0,0.0,73,0.00,,,0.00,LWC V1.00 B64,2013-01-23 12:50:00,
2013-01-23 04:55:00,49.6,41.7,29.97,SE,140,0.0,0.0,74,0.00,,,0.00,LWC V1.00 B64,2013-01-23 12:55:00,
2013-01-23 05:00:00,49.6,42.0,29.97,SE,140,0.0,2.0,75,0.00,,,0.00,LWC V1.00 B64,2013-01-23 13:00:00,
2013-01-23 05:05:00,49.7,41.8,29.97,SSE,157,0.0,2.0,74,0.00,,,0.00,LWC V1.00 B64,2013-01-23 13:05:00,
2013-01-23 05:10:00,49.7,42.8,29.97,SSE,157,0.0,1.0,77,0.00,,,0.00,LWC V1.00 B64,2013-01-23 13:10:00,
2013-01-23 05:15:00,49.5,42.6,29.97,SSE,156,0.0,0.0,77,0.00,,,0.00,LWC V1.00 B64,2013-01-23 13:15:00,
2013-01-23 05:20:00,49.3,42.1,29.97,SSE,156,0.0,0.0,76,0.00,,,0.00,LWC V1.00 B64,2013-01-23 13:20:00,
2013-01-23 05:25:00,49.1,41.2,29.96,SSE,157,0.0,0.0,74,0.00,,,0.00,LWC V1.00 B64,2013-01-23 13:25:00,
2013-01-23 05:30:00,49.2,41.3,29.97,SSE,157,0.0,0.0,74,0.00,,,0.00,LWC V1.00 B64,2013-01-23 13:30:00,
2013-01-23 05:35:00,49.4,41.5,29.97,SSE,157,0.0,1.0,74,0.00,,,0.00,LWC V1.00 B64,2013-01-23 13:35:00,
2013-01-23 05:40:00,49.6,41.3,29.97,SSE,157,0.0,0.0,73,0.00,,,0.00,LWC V1.00 B64,2013-01-23 13:40:00,
2013-01-23 05:45:00,49.9,41.6,29.96,SSE,157,0.0,1.0,73,0.00,,,0.00,LWC V1.00 B64,2013-01-23 13:45:00,
2013-01-23 05:50:00,50.1,41.4,29.96,SSE,157,0.0,0.0,72,0.00,,,0.00,LWC V1.00 B64,2013-01-23 13:50:00,
2013-01-23 05:55:00,50.2,41.5,29.96,SSE,156,0.0,0.0,72,0.00,,,0.00,LWC V1.00 B64,2013-01-23 13:55:00,
2013-01-23 06:00:00,50.2,41.9,29.96,SSE,157,0.0,0.0,73,0.00,,,0.00,LWC V1.00 B64,2013-01-23 14:00:00,
2013-01-23 06:05:00,50.0,41.7,29.96,SSE,157,0.0,0.0,73,0.00,,,0.00,LWC V1.00 B64,2013-01-23 14:05:00,
2013-01-23 06:10:00,49.9,41.6,29.97,SSE,157,0.0,1.0,73,0.00,,,0.00,LWC V1.00 B64,2013-01-23 14:10:00,
2013-01-23 06:15:00,50.0,41.3,29.96,SSE,156,0.0,0.0,72,0.00,,,0.00,LWC V1.00 B64,2013-01-23 14:15:00,
2013-01-23 06:20:00,50.1,42.1,29.97,SSE,157,0.0,0.0,74,0.00,,,0.00,LWC V1.00 B64,2013-01-23 14:20:00,
2013-01-23 06:25:00,50.1,42.8,29.97,SSE,157,0.0,0.0,76,0.00,,,0.00,LWC V1.00 B64,2013-01-23 14:25:00,
2013-01-23 06:30:00,49.9,43.0,29.97,SSE,156,0.0,0.0,77,0.00,,,0.00,LWC V1.00 B64,2013-01-23 14:30:00,
2013-01-23 06:35:00,49.7,42.4,29.97,SSE,156,0.0,0.0,76,0.00,,,0.00,LWC V1.00 B64,2013-01-23 14:35:00,
2013-01-23 06:40:00,49.8,42.2,29.97,SSE,157,0.0,0.0,75,0.00,,,0.00,LWC V1.00 B64,2013-01-23 14:40:00,
2013-01-23 06:45:00,49.9,42.3,29.97,SSE,157,0.0,0.0,75,0.00,,,0.00,LWC V1.00 B64,2013-01-23 14:45:00,
2013-01-23 06:50:00,50.1,42.1,29.96,SSE,156,0.0,0.0,74,0.00,,,0.00,LWC V1.00 B64,2013-01-23 14:50:00,
2013-01-23 06:55:00,50.2,42.2,29.97,SSE,157,0.0,1.0,74,0.00,,,0.00,LWC V1.00 B64,2013-01-23 14:55:00,
2013-01-23 07:00:00,50.3,42.0,29.97,SSE,157,0.0,0.0,73,0.00,,,0.00,LWC V1.00 B64,2013-01-23 15:00:00,
2013-01-23 07:05:00,50.5,41.8,29.97,SSE,157,0.0,0.0,72,0.00,,,0.00,LWC V1.00 B64,2013-01-23 15:05:00,
2013-01-23 07:10:00,50.6,41.9,29.98,SSE,156,0.0,0.0,72,0.00,,,0.00,LWC V1.00 B64,2013-01-23 15:10:00,
2013-01-23 07:15:00,50.8,42.5,29.99,SSE,157,0.0,0.0,73,0.00,,,0.00,LWC V1.00 B64,2013-01-23 15:15:00,
2013-01-23 07:20:00,50.8,43.2,29.98,SSE,157,0.0,1.0,75,0.00,,,0.00,LWC V1.00 B64,2013-01-23 15:20:00,
2013-01-23 07:25:00,50.6,42.6,29.97,SSE,157,0.0,2.0,74,0.00,,,0.00,LWC V1.00 B64,2013-01-23 15:25:00,
2013-01-23 07:30:00,50.6,42.3,29.98,SSE,156,0.0,0.0,73,0.00,,,0.00,LWC V1.00 B64,2013-01-23 15:30:00,
2013-01-23 07:35:00,50.7,42.4,29.98,SSE,157,0.0,0.0,73,0.00,,,0.00,LWC V1.00 B64,2013-01-23 15:35:00,
2013-01-23 07:40:00,50.6,43.7,29.98,SSE,156,0.0,0.0,77,0.00,,,0.00,LWC V1.00 B64,2013-01-23 15:40:00,
2013-01-23 07:45:00,50.5,43.2,29.98,SSE,157,0.0,1.0,76,0.00,,,0.00,LWC V1.00 B64,2013-01-23 15:45:00,
2013-01-23 07:50:00,50.3,43.4,29.98,SSE,157,2.0,2.0,77,0.00,,,0.00,LWC V1.00 B64,2013-01-23 15:50:00,
2013-01-23 07:55:00,50.4,43.5,29.98,SSE,157,0.0,1.0,77,0.00,,,0.00,LWC V1.00 B64,2013-01-23 15:55:00,
2013-01-23 08:00:00,50.5,42.9,29.98,SSE,157,0.0,0.0,75,0.00,,,0.00,LWC V1.00 B64,2013-01-23 16:00:00,
2013-01-23 08:05:00,50.6,42.3,29.98,SSE,156,0.0,0.0,73,0.00,,,0.00,LWC V1.00 B64,2013-01-23 16:05:00,
2013-01-23 08:10:00,50.7,42.7,29.98,SSE,157,1.0,2.0,74,0.00,,,0.00,LWC V1.00 B64,2013-01-23 16:10:00,
2013-01-23 08:15:00,50.7,43.1,29.98,SSE,157,0.0,0.0,75,0.00,,,0.00,LWC V1.00 B64,2013-01-23 16:15:00,
2013-01-23 08:20:00,50.6,42.6,29.98,SSE,157,0.0,0.0,74,0.00,,,0.00,LWC V1.00 B64,2013-01-23 16:20:00,
2013-01-23 08:25:00,50.8,44.2,29.98,SSE,156,0.0,0.0,78,0.00,,,0.00,LWC V1.00 B64,2013-01-23 16:25:00,
2013-01-23 08:30:00,50.7,44.1,29.98,SSE,157,0.0,0.0,78,0.00,,,0.00,LWC V1.00 B64,2013-01-23 16:30:00,
2013-01-23 08:35:00,50.6,44.0,29.99,SSE,157,0.0,1.0,78,0.00,,,0.00,LWC V1.00 B64,2013-01-23 16:35:00,
2013-01-23 08:40:00,50.6,43.3,29.99,SSE,156,0.0,2.0,76,0.00,,,0.00,LWC V1.00 B64,2013-01-23 16:40:00,
2013-01-23 08:45:00,50.9,43.6,29.99,SSE,156,0.0,1.0,76,0.00,,,0.00,LWC V1.00 B64,2013-01-23 16:45:00,
2013-01-23 08:50:00,51.1,43.5,29.98,SSE,157,0.0,0.0,75,0.00,,,0.00,LWC V1.00 B64,2013-01-23 16:50:00,
2013-01-23 08:55:00,51.5,43.1,29.99,SSE,157,0.0,1.0,73,0.00,,,0.00,LWC V1.00 B64,2013-01-23 16:55:00,
2013-01-23 09:00:00,52.0,43.3,30.00,SSE,157,0.0,0.0,72,0.00,,,0.00,LWC V1.00 B64,2013-01-23 17:00:00,
2013-01-23 09:05:00,52.3,43.5,29.99,SSE,157,0.0,0.0,72,0.00,,,0.00,LWC V1.00 B64,2013-01-23 17:05:00,
2013-01-23 09:10:00,52.7,43.6,30.00,SSE,157,0.0,0.0,71,0.00,,,0.00,LWC V1.00 B64,2013-01-23 17:10:00,
2013-01-23 09:15:00,52.9,43.4,30.00,SSE,157,0.0,2.0,70,0.00,,,0.00,LWC V1.00 B64,2013-01-23 17:15:00,
2013-01-23 09:20:00,53.1,42.8,30.00,SSE,157,1.0,2.0,68,0.00,,,0.00,LWC V1.00 B64,2013-01-23 17:20:00,
2013-01-23 09:25:00,53.4,43.1,30.00,SSE,157,0.0,1.0,68,0.00,,,0.00,LWC V1.00 B64,2013-01-23 17:25:00,
2013-01-23 09:30:00,53.7,44.2,30.00,SSE,154,0.0,0.0,70,0.00,,,0.00,LWC V1.00 B64,2013-01-23 17:30:00,
2013-01-23 09:35:00,53.8,43.9,30.00,SSE,154,0.0,0.0,69,0.00,,,0.00,LWC V1.00 B64,2013-01-23 17:35:00,
2013-01-23 09:40:00,54.0,44.1,30.00,SSE,153,0.0,0.0,69,0.00,,,0.00,LWC V1.00 B64,2013-01-23 17:40:00,
2013-01-23 09:45:00,54.3,45.8,30.00,SSE,154,0.0,0.0,73,0.00,,,0.00,LWC V1.00 B64,2013-01-23 17:45:00,
2013-01-23 09:50:00,54.5,46.4,30.01,SSE,154,0.0,0.0,74,0.00,,,0.00,LWC V1.00 B64,2013-01-23 17:50:00,
2013-01-23 09:55:00,54.4,46.3,30.01,SSE,153,0.0,1.0,74,0.00,,,0.00,LWC V1.00 B64,2013-01-23 17:55:00,
2013-01-23 10:00:00,54.3,45.8,30.01,SSE,154,1.0,1.0,73,0.00,,,0.00,LWC V1.00 B64,2013-01-23 18:00:00,
2013-01-23 10:05:00,54.3,45.8,30.01,SSE,154,0.0,0.0,73,0.00,,,0.00,LWC V1.00 B64,2013-01-23 18:05:00,
2013-01-23 10:10:00,54.2,45.4,30.01,SSE,154,0.0,0.0,72,0.00,,,0.00,LWC V1.00 B64,2013-01-23 18:10:00,
2013-01-23 10:15:00,54.2,43.5,30.02,SSE,153,0.0,0.0,67,0.00,,,0.00,LWC V1.00 B64,2013-01-23 18:15:00,
2013-01-23 10:20:00,54.5,43.4,30.02,SSE,154,0.0,0.0,66,0.00,,,0.00,LWC V1.00 B64,2013-01-23 18:20:00,
2013-01-23 10:25:00,54.8,44.4,30.02,SSE,154,0.0,0.0,68,0.00,,,0.00,LWC V1.00 B64,2013-01-23 18:25:00,
2013-01-23 10:30:00,55.1,45.1,30.02,SSE,153,0.0,1.0,69,0.00,,,0.00,LWC V1.00 B64,2013-01-23 18:30:00,
2013-01-23 10:35:00,55.4,46.2,30.02,SSE,153,0.0,0.0,71,0.00,,,0.00,LWC V1.00 B64,2013-01-23 18:35:00,
2013-01-23 10:40:00,55.5,45.1,30.02,SSE,154,0.0,0.0,68,0.00,,,0.00,LWC V1.00 B64,2013-01-23 18:40:00,
2013-01-23 10:45:00,55.5,45.9,30.02,SSE,154,0.0,1.0,70,0.00,,,0.00,LWC V1.00 B64,2013-01-23 18:45:00,
2013-01-23 10:50:00,55.5,45.1,30.02,SSE,155,0.0,0.0,68,0.00,,,0.00,LWC V1.00 B64,2013-01-23 18:50:00,
2013-01-23 10:55:00,55.6,45.6,30.02,SSE,155,0.0,0.0,69,0.00,,,0.00,LWC V1.00 B64,2013-01-23 18:55:00,
2013-01-23 11:00:00,55.8,45.8,30.02,SSE,155,0.0,0.0,69,0.00,,,0.00,LWC V1.00 B64,2013-01-23 19:00:00,
2013-01-23 11:05:00,55.8,46.5,30.03,SSE,155,0.0,1.0,71,0.00,,,0.00,LWC V1.00 B64,2013-01-23 19:05:00,
2013-01-23 11:10:00,55.6,47.1,30.03,SSE,155,0.0,1.0,73,0.00,,,0.00,LWC V1.00 B64,2013-01-23 19:10:00,
2013-01-23 11:15:00,55.4,48.0,30.03,SSE,155,0.0,0.0,76,0.00,,,0.00,LWC V1.00 B64,2013-01-23 19:15:00,
2013-01-23 11:20:00,55.3,46.8,30.03,SSE,155,0.0,0.0,73,0.00,,,0.00,LWC V1.00 B64,2013-01-23 19:20:00,
2013-01-23 11:25:00,55.4,47.6,30.03,SSE,155,0.0,0.0,75,0.00,,,0.00,LWC V1.00 B64,2013-01-23 19:25:00,
2013-01-23 11:30:00,55.4,48.0,30.03,SSE,155,0.0,0.0,76,0.00,,,0.01,LWC V1.00 B64,2013-01-23 19:30:00,
2013-01-23 11:35:00,55.3,48.6,30.03,SSE,155,0.0,0.0,78,0.00,,,0.01,LWC V1.00 B64,2013-01-23 19:35:00,
2013-01-23 11:40:00,55.1,48.7,30.03,SSE,155,0.0,1.0,79,0.00,,,0.01,LWC V1.00 B64,2013-01-23 19:40:00,
2013-01-23 11:45:00,54.8,49.4,30.03,SSE,155,0.0,0.0,82,0.00,,,0.01,LWC V1.00 B64,2013-01-23 19:45:00,
2013-01-23 11:50:00,54.5,49.4,30.03,SSE,155,0.0,0.0,83,0.00,,,0.01,LWC V1.00 B64,2013-01-23 19:50:00,
2013-01-23 11:55:00,54.2,49.1,30.02,SSE,155,0.0,1.0,83,0.00,,,0.01,LWC V1.00 B64,2013-01-23 19:55:00,
2013-01-23 12:00:00,53.9,48.5,30.02,ESE,119,0.0,1.0,82,0.00,,,0.02,LWC V1.00 B64,2013-01-23 20:00:00,
2013-01-23 12:05:00,53.9,49.2,30.02,ESE,119,0.0,0.0,84,0.00,,,0.02,LWC V1.00 B64,2013-01-23 20:05:00,
2013-01-23 12:10:00,53.9,49.5,30.01,ESE,121,0.0,1.0,85,0.00,,,0.02,LWC V1.00 B64,2013-01-23 20:10:00,
2013-01-23 12:15:00,53.7,49.6,30.01,ESE,121,0.0,0.0,86,0.00,,,0.02,LWC V1.00 B64,2013-01-23 20:15:00,
2013-01-23 12:20:00,53.6,48.9,30.01,SSE,151,0.0,3.0,84,0.00,,,0.02,LWC V1.00 B64,2013-01-23 20:20:00,
2013-01-23 12:25:00,53.3,48.3,30.00,SSE,150,0.0,0.0,83,0.00,,,0.02,LWC V1.00 B64,2013-01-23 20:25:00,
2013-01-23 12:30:00,53.3,48.6,30.00,SSE,151,0.0,0.0,84,0.00,,,0.03,LWC V1.00 B64,2013-01-23 20:30:00,
2013-01-23 12:35:00,53.4,49.0,30.00,SSE,151,0.0,1.0,85,0.00,,,0.03,LWC V1.00 B64,2013-01-23 20:35:00,
2013-01-23 12:40:00,53.5,49.4,30.00,SSE,150,0.0,0.0,86,0.00,,,0.03,LWC V1.00 B64,2013-01-23 20:40:00,
2013-01-23 12:45:00,53.5,50.0,30.00,SSE,150,0.0,0.0,88,0.00,,,0.03,LWC V1.00 B64,2013-01-23 20:45:00,
2013-01-23 12:50:00,53.5,50.0,30.00,SSE,151,0.0,0.0,88,0.00,,,0.03,LWC V1.00 B64,2013-01-23 20:50:00,
2013-01-23 12:55:00,53.3,49.8,30.00,SSE,151,0.0,0.0,88,0.00,,,0.03,LWC V1.00 B64,2013-01-23 20:55:00,
2013-01-23 13:00:00,53.2,49.7,29.99,SSE,150,0.0,0.0,88,0.00,,,0.04,LWC V1.00 B64,2013-01-23 21:00:00,
2013-01-23 13:05:00,53.2,49.7,29.99,SSE,151,0.0,2.0,88,0.00,,,0.04,LWC V1.00 B64,2013-01-23 21:05:00,
2013-01-23 13:10:00,53.1,49.9,29.99,SSE,151,0.0,1.0,89,0.00,,,0.04,LWC V1.00 B64,2013-01-23 21:10:00,
2013-01-23 13:15:00,53.0,49.8,29.99,SSE,150,0.0,0.0,89,0.00,,,0.04,LWC V1.00 B64,2013-01-23 21:15:00,
2013-01-23 13:20:00,52.9,49.7,29.99,SSE,150,0.0,0.0,89,0.00,,,0.04,LWC V1.00 B64,2013-01-23 21:20:00,
2013-01-23 13:25:00,53.0,50.1,30.00,SSE,151,0.0,0.0,90,0.00,,,0.04,LWC V1.00 B64,2013-01-23 21:25:00,
2013-01-23 13:30:00,52.9,50.0,30.00,SSE,151,0.0,0.0,90,0.00,,,0.04,LWC V1.00 B64,2013-01-23 21:30:00,
2013-01-23 13:35:00,52.7,49.8,30.00,SSE,151,0.0,2.0,90,0.00,,,0.04,LWC V1.00 B64,2013-01-23 21:35:00,
2013-01-23 13:40:00,52.5,49.7,30.00,SSE,150,0.0,2.0,90,0.71,,,0.04,LWC V1.00 B64,2013-01-23 21:40:00,
2013-01-23 13:45:00,52.3,49.5,30.02,SSW,213,2.0,2.0,90,0.17,,,0.10,LWC V1.00 B64,2013-01-23 21:45:00,
2013-01-23 13:50:00,52.1,49.6,30.03,SW,234,0.0,0.0,91,0.07,,,0.10,LWC V1.00 B64,2013-01-23 21:50:00,
2013-01-23 13:55:00,52.0,49.5,30.04,SW,234,0.0,0.0,91,0.15,,,0.10,LWC V1.00 B64,2013-01-23 21:55:00,
2013-01-23 14:00:00,51.9,49.4,30.05,SW,233,1.0,1.0,91,0.25,,,0.14,LWC V1.00 B64,2013-01-23 22:00:00,
2013-01-23 14:05:00,51.5,49.0,30.05,SSW,200,0.0,6.0,91,0.15,,,0.14,LWC V1.00 B64,2013-01-23 22:05:00,
2013-01-23 14:10:00,51.3,49.1,30.05,South,186,1.0,2.0,92,0.10,,,0.14,LWC V1.00 B64,2013-01-23 22:10:00,
2013-01-23 14:15:00,51.1,48.9,30.04,WSW,249,0.0,0.0,92,0.10,,,0.17,LWC V1.00 B64,2013-01-23 22:15:00,
2013-01-23 14:20:00,51.0,48.8,30.04,SW,230,0.0,0.0,92,0.14,,,0.17,LWC V1.00 B64,2013-01-23 22:20:00,
2013-01-23 14:25:00,50.9,48.7,30.04,SW,230,0.0,2.0,92,0.19,,,0.17,LWC V1.00 B64,2013-01-23 22:25:00,
2013-01-23 14:30:00,50.7,48.7,30.04,NNW,342,0.0,3.0,93,0.08,,,0.20,LWC V1.00 B64,2013-01-23 22:30:00,
2013-01-23 14:35:00,50.6,48.7,30.03,NNW,342,1.0,2.0,93,0.08,,,0.20,LWC V1.00 B64,2013-01-23 22:35:00,
2013-01-23 14:40:00,50.7,48.7,30.04,SSE,150,0.0,3.0,93,0.07,,,0.20,LWC V1.00 B64,2013-01-23 22:40:00,
2013-01-23 14:45:00,50.7,48.7,30.04,South,170,0.0,2.0,93,0.07,,,0.22,LWC V1.00 B64,2013-01-23 22:45:00,
2013-01-23 14:50:00,50.7,48.7,30.04,South,169,0.0,1.0,93,0.14,,,0.22,LWC V1.00 B64,2013-01-23 22:50:00,
2013-01-23 14:55:00,50.6,48.9,30.05,South,169,0.0,0.0,94,0.12,,,0.22,LWC V1.00 B64,2013-01-23 22:55:00,
2013-01-23 15:00:00,50.6,48.9,30.05,South,169,0.0,0.0,94,0.08,,,0.24,LWC V1.00 B64,2013-01-23 23:00:00,
2013-01-23 15:05:00,50.6,48.9,30.05,South,169,0.0,1.0,94,0.14,,,0.24,LWC V1.00 B64,2013-01-23 23:05:00,
2013-01-23 15:10:00,50.6,48.9,30.05,South,169,0.0,0.0,94,0.19,,,0.24,LWC V1.00 B64,2013-01-23 23:10:00,
2013-01-23 15:15:00,50.7,49.0,30.04,South,169,0.0,0.0,94,0.16,,,0.28,LWC V1.00 B64,2013-01-23 23:15:00,
2013-01-23 15:20:00,50.8,49.1,30.04,South,169,0.0,0.0,94,0.13,,,0.28,LWC V1.00 B64,2013-01-23 23:20:00,
2013-01-23 15:25:00,51.0,49.6,30.04,South,169,0.0,1.0,95,0.09,,,0.28,LWC V1.00 B64,2013-01-23 23:25:00,
2013-01-23 15:30:00,51.0,49.3,30.04,South,169,0.0,1.0,94,0.09,,,0.31,LWC V1.00 B64,2013-01-23 23:30:00,
2013-01-23 15:35:00,50.9,49.5,30.05,SSW,197,3.0,3.0,95,0.10,,,0.31,LWC V1.00 B64,2013-01-23 23:35:00,
2013-01-23 15:40:00,50.8,49.4,30.05,South,171,3.0,3.0,95,0.12,,,0.31,LWC V1.00 B64,2013-01-23 23:40:00,
2013-01-23 15:45:00,50.7,49.3,30.06,SSE,155,1.0,5.0,95,0.13,,,0.33,LWC V1.00 B64,2013-01-23 23:45:00,
2013-01-23 15:50:00,50.6,49.2,30.06,SE,143,4.0,6.0,95,0.12,,,0.33,LWC V1.00 B64,2013-01-23 23:50:00,
2013-01-23 15:55:00,50.6,49.2,30.05,SE,140,3.0,3.0,95,0.10,,,0.33,LWC V1.00 B64,2013-01-23 23:55:00,
2013-01-23 16:00:00,50.7,49.3,30.05,East,101,2.0,2.0,95,0.09,,,0.36,LWC V1.00 B64,2013-01-24 00:00:00,
2013-01-23 16:05:00,50.9,49.5,30.04,East,101,1.0,2.0,95,0.10,,,0.36,LWC V1.00 B64,2013-01-24 00:05:00,
2013-01-23 16:10:00,51.0,49.6,30.05,East,101,0.0,1.0,95,0.09,,,0.36,LWC V1.00 B64,2013-01-24 00:10:00,
2013-01-23 16:15:00,51.1,49.7,30.05,ESE,112,0.0,0.0,95,0.09,,,0.38,LWC V1.00 B64,2013-01-24 00:15:00,
2013-01-23 16:20:00,51.2,49.8,30.05,ESE,112,1.0,1.0,95,0.05,,,0.38,LWC V1.00 B64,2013-01-24 00:20:00,
2013-01-23 16:25:00,51.2,49.8,30.06,ESE,111,0.0,1.0,95,0.04,,,0.38,LWC V1.00 B64,2013-01-24 00:25:00,
2013-01-23 16:31:00,51.2,49.8,30.06,South,171,0.0,2.0,95,0.00,,,0.38,LWC V1.00 B64,2013-01-24 00:31:00,
2013-01-23 16:36:00,51.1,49.7,30.05,South,171,0.0,1.0,95,0.00,,,0.38,LWC V1.00 B64,2013-01-24 00:36:00,
2013-01-23 16:41:00,51.0,49.6,30.05,South,171,0.0,1.0,95,0.00,,,0.38,LWC V1.00 B64,2013-01-24 00:41:00,
2013-01-23 16:46:00,50.9,49.8,30.05,South,171,1.0,1.0,96,0.07,,,0.40,LWC V1.00 B64,2013-01-24 00:46:00,
2013-01-23 16:51:00,50.8,49.4,30.05,South,171,0.0,0.0,95,0.07,,,0.40,LWC V1.00 B64,2013-01-24 00:51:00,
2013-01-23 16:56:00,50.7,49.3,30.04,South,171,0.0,0.0,95,0.05,,,0.40,LWC V1.00 B64,2013-01-24 00:56:00,
2013-01-23 17:01:00,50.7,49.6,30.05,South,171,0.0,0.0,96,0.00,,,0.40,LWC V1.00 B64,2013-01-24 01:01:00,
2013-01-23 17:06:00,50.8,49.7,30.05,South,171,0.0,0.0,96,0.00,,,0.40,LWC V1.00 B64,2013-01-24 01:06:00,
2013-01-23 17:11:00,50.8,49.7,30.05,South,171,0.0,0.0,96,0.00,,,0.40,LWC V1.00 B64,2013-01-24 01:11:00,
2013-01-23 17:16:00,50.8,49.7,30.05,South,171,0.0,0.0,96,0.00,,,0.40,LWC V1.00 B64,2013-01-24 01:16:00,
2013-01-23 17:21:00,50.7,49.6,30.05,South,171,0.0,0.0,96,0.00,,,0.40,LWC V1.00 B64,2013-01-24 01:21:00,
2013-01-23 17:26:00,50.6,49.5,30.05,South,171,0.0,0.0,96,0.00,,,0.40,LWC V1.00 B64,2013-01-24 01:26:00,
2013-01-23 17:31:00,50.6,49.5,30.05,South,171,0.0,0.0,96,0.00,,,0.40,LWC V1.00 B64,2013-01-24 01:31:00,
2013-01-23 17:36:00,50.5,49.4,30.05,South,171,0.0,0.0,96,0.00,,,0.40,LWC V1.00 B64,2013-01-24 01:36:00,
2013-01-23 17:41:00,50.4,49.3,30.05,South,171,0.0,1.0,96,0.00,,,0.40,LWC V1.00 B64,2013-01-24 01:41:00,
2013-01-23 17:46:00,50.4,49.3,30.05,South,171,0.0,0.0,96,0.00,,,0.40,LWC V1.00 B64,2013-01-24 01:46:00,
2013-01-23 17:51:00,50.4,49.3,30.06,South,171,0.0,0.0,96,0.00,,,0.40,LWC V1.00 B64,2013-01-24 01:51:00,
2013-01-23 17:56:00,50.5,49.4,30.06,South,171,0.0,0.0,96,0.00,,,0.40,LWC V1.00 B64,2013-01-24 01:56:00,
2013-01-23 18:01:00,50.4,49.3,30.06,South,171,0.0,0.0,96,0.00,,,0.40,LWC V1.00 B64,2013-01-24 02:01:00,
2013-01-23 18:06:00,50.4,49.3,30.06,South,171,0.0,0.0,96,0.00,,,0.40,LWC V1.00 B64,2013-01-24 02:06:00,
2013-01-23 18:11:00,50.4,49.3,30.06,South,171,0.0,0.0,96,0.00,,,0.40,LWC V1.00 B64,2013-01-24 02:11:00,
2013-01-23 18:16:00,50.4,49.3,30.06,South,171,0.0,0.0,96,0.00,,,0.40,LWC V1.00 B64,2013-01-24 02:16:00,
2013-01-23 18:21:00,50.4,49.3,30.07,South,171,0.0,0.0,96,0.00,,,0.40,LWC V1.00 B64,2013-01-24 02:21:00,
2013-01-23 18:26:00,50.4,49.3,30.06,South,171,0.0,0.0,96,0.00,,,0.40,LWC V1.00 B64,2013-01-24 02:26:00,
2013-01-23 18:31:00,50.5,49.4,30.06,South,171,0.0,0.0,96,0.00,,,0.40,LWC V1.00 B64,2013-01-24 02:31:00,
2013-01-23 18:37:00,50.5,49.4,30.06,South,171,1.0,1.0,96,0.00,,,0.40,LWC V1.00 B64,2013-01-24 02:37:00,
2013-01-23 18:42:00,50.5,49.4,30.06,South,189,0.0,0.0,96,0.00,,,0.40,LWC V1.00 B64,2013-01-24 02:42:00,
2013-01-23 18:47:00,50.4,49.3,30.06,South,189,0.0,1.0,96,0.00,,,0.40,LWC V1.00 B64,2013-01-24 02:47:00,
2013-01-23 18:52:00,50.3,49.2,30.06,South,189,0.0,1.0,96,0.00,,,0.40,LWC V1.00 B64,2013-01-24 02:52:00,
2013-01-23 18:57:00,50.3,49.2,30.06,South,188,0.0,0.0,96,0.00,,,0.40,LWC V1.00 B64,2013-01-24 02:57:00,
2013-01-23 19:02:00,50.3,49.2,30.07,South,188,0.0,1.0,96,0.00,,,0.40,LWC V1.00 B64,2013-01-24 03:02:00,
2013-01-23 19:07:00,50.2,49.1,30.07,South,189,0.0,0.0,96,0.00,,,0.40,LWC V1.00 B64,2013-01-24 03:07:00,
2013-01-23 19:12:00,50.2,49.1,30.07,South,188,0.0,0.0,96,0.00,,,0.40,LWC V1.00 B64,2013-01-24 03:12:00,
2013-01-23 19:17:00,50.2,49.1,30.07,South,188,0.0,0.0,96,0.00,,,0.41,LWC V1.00 B64,2013-01-24 03:17:00,
2013-01-23 19:23:00,50.2,49.1,30.06,South,188,0.0,1.0,96,0.00,,,0.41,LWC V1.00 B64,2013-01-24 03:23:00,
2013-01-23 19:28:00,50.0,48.9,30.06,South,190,1.0,1.0,96,0.00,,,0.41,LWC V1.00 B64,2013-01-24 03:28:00,
2013-01-23 19:33:00,50.0,48.9,30.06,South,190,0.0,0.0,96,0.00,,,0.41,LWC V1.00 B64,2013-01-24 03:33:00,
2013-01-23 19:38:00,50.1,49.3,30.06,South,190,0.0,0.0,97,0.00,,,0.41,LWC V1.00 B64,2013-01-24 03:38:00,
2013-01-23 19:44:00,50.1,49.0,30.06,South,190,0.0,0.0,96,0.00,,,0.41,LWC V1.00 B64,2013-01-24 03:44:00,
2013-01-23 19:49:00,50.0,48.9,30.06,South,190,0.0,0.0,96,0.00,,,0.41,LWC V1.00 B64,2013-01-24 03:49:00,
2013-01-23 19:54:00,49.9,48.8,30.07,South,190,0.0,0.0,96,0.00,,,0.41,LWC V1.00 B64,2013-01-24 03:54:00,
2013-01-23 20:00:00,49.8,48.7,30.08,South,190,0.0,0.0,96,0.00,,,0.41,LWC V1.00 B64,2013-01-24 04:00:00,
2013-01-23 20:05:00,49.6,48.5,30.08,South,190,0.0,0.0,96,0.00,,,0.41,LWC V1.00 B64,2013-01-24 04:05:00,
2013-01-23 20:10:00,49.5,48.4,30.08,South,190,0.0,0.0,96,0.00,,,0.41,LWC V1.00 B64,2013-01-24 04:10:00,
2013-01-23 20:16:00,49.6,48.8,30.08,South,190,0.0,0.0,97,0.00,,,0.41,LWC V1.00 B64,2013-01-24 04:16:00,
2013-01-23 20:21:00,49.6,48.8,30.08,South,190,0.0,0.0,97,0.00,,,0.41,LWC V1.00 B64,2013-01-24 04:21:00,
2013-01-23 20:26:00,49.9,49.1,30.08,South,189,0.0,1.0,97,0.00,,,0.41,LWC V1.00 B64,2013-01-24 04:26:00,
2013-01-23 20:32:00,49.9,48.8,30.08,South,188,0.0,0.0,96,0.00,,,0.41,LWC V1.00 B64,2013-01-24 04:32:00,
2013-01-23 20:37:00,49.8,48.7,30.08,South,189,0.0,0.0,96,0.00,,,0.41,LWC V1.00 B64,2013-01-24 04:37:00,
2013-01-23 20:42:00,49.8,49.0,30.08,South,189,0.0,0.0,97,0.00,,,0.41,LWC V1.00 B64,2013-01-24 04:42:00,
2013-01-23 20:47:00,49.8,49.0,30.08,South,189,0.0,0.0,97,0.00,,,0.41,LWC V1.00 B64,2013-01-24 04:47:00,
2013-01-23 20:54:00,49.7,48.6,30.08,South,189,0.0,0.0,96,0.00,,,0.41,LWC V1.00 B64,2013-01-24 04:54:00,
2013-01-23 21:00:00,49.6,48.8,30.08,South,188,0.0,0.0,97,0.00,,,0.41,LWC V1.00 B64,2013-01-24 05:00:00,
2013-01-23 21:01:00,49.6,48.8,30.08,South,189,0.0,0.0,97,0.00,,,0.42,LWC V1.00 B64,2013-01-24 05:01:00,
2013-01-23 21:04:00,49.6,48.8,30.08,South,189,0.0,0.0,97,0.00,,,0.42,LWC V1.00 B64,2013-01-24 05:04:00,
2013-01-23 21:05:00,49.6,48.8,30.09,South,189,0.0,0.0,97,0.00,,,0.42,LWC V1.00 B64,2013-01-24 05:05:00,
2013-01-23 21:12:00,49.6,48.8,30.09,South,189,0.0,0.0,97,0.00,,,0.42,LWC V1.00 B64,2013-01-24 05:12:00,
2013-01-23 21:17:00,49.6,48.8,30.09,South,189,0.0,0.0,97,0.00,,,0.42,LWC V1.00 B64,2013-01-24 05:17:00,
2013-01-23 21:23:00,49.6,48.8,30.08,South,189,0.0,0.0,97,0.00,,,0.42,LWC V1.00 B64,2013-01-24 05:23:00,
2013-01-23 21:30:00,49.6,48.8,30.09,South,189,0.0,0.0,97,0.00,,,0.42,LWC V1.00 B64,2013-01-24 05:30:00,
2013-01-23 21:35:00,49.6,48.8,30.09,South,188,0.0,0.0,97,0.00,,,0.43,LWC V1.00 B64,2013-01-24 05:35:00,
2013-01-23 21:41:00,49.6,48.8,30.09,South,188,0.0,0.0,97,0.00,,,0.43,LWC V1.00 B64,2013-01-24 05:41:00,
2013-01-23 21:47:00,49.8,49.0,30.08,South,189,1.0,1.0,97,0.00,,,0.43,LWC V1.00 B64,2013-01-24 05:47:00,
2013-01-23 21:53:00,49.8,49.0,30.09,South,189,0.0,0.0,97,0.00,,,0.43,LWC V1.00 B64,2013-01-24 05:53:00,
2013-01-23 21:58:00,49.8,49.0,30.08,South,189,0.0,0.0,97,0.00,,,0.43,LWC V1.00 B64,2013-01-24 05:58:00,
2013-01-23 22:03:00,49.8,49.0,30.08,South,189,0.0,0.0,97,0.00,,,0.43,LWC V1.00 B64,2013-01-24 06:03:00,
2013-01-23 22:08:00,49.7,48.9,30.09,South,188,0.0,0.0,97,0.00,,,0.43,LWC V1.00 B64,2013-01-24 06:08:00,
2013-01-23 22:13:00,49.6,48.8,30.09,South,189,0.0,0.0,97,0.00,,,0.43,LWC V1.00 B64,2013-01-24 06:13:00,
2013-01-23 22:19:00,49.5,48.7,30.08,South,189,0.0,0.0,97,0.00,,,0.44,LWC V1.00 B64,2013-01-24 06:19:00,
2013-01-23 22:24:00,49.3,48.5,30.08,South,188,0.0,0.0,97,0.00,,,0.44,LWC V1.00 B64,2013-01-24 06:24:00,
2013-01-23 22:31:00,49.4,48.6,30.09,South,188,0.0,0.0,97,0.00,,,0.44,LWC V1.00 B64,2013-01-24 06:31:00,
2013-01-23 22:36:00,49.4,48.6,30.09,South,188,0.0,0.0,97,0.00,,,0.44,LWC V1.00 B64,2013-01-24 06:36:00,
2013-01-23 22:41:00,49.5,48.7,30.09,South,188,0.0,0.0,97,0.00,,,0.44,LWC V1.00 B64,2013-01-24 06:41:00,
2013-01-23 22:46:00,49.5,48.7,30.08,South,189,0.0,0.0,97,0.00,,,0.45,LWC V1.00 B64,2013-01-24 06:46:00,
2013-01-23 22:51:00,49.4,48.6,30.09,South,189,0.0,0.0,97,0.00,,,0.45,LWC V1.00 B64,2013-01-24 06:51:00,
2013-01-23 22:57:00,49.3,48.5,30.09,South,189,0.0,0.0,97,0.00,,,0.45,LWC V1.00 B64,2013-01-24 06:57:00,
2013-01-23 23:03:00,49.2,48.4,30.09,South,189,0.0,0.0,97,0.00,,,0.45,LWC V1.00 B64,2013-01-24 07:03:00,
2013-01-23 23:08:00,49.1,48.3,30.09,South,189,0.0,0.0,97,0.00,,,0.45,LWC V1.00 B64,2013-01-24 07:08:00,
2013-01-23 23:13:00,49.0,48.2,30.08,South,189,0.0,0.0,97,0.00,,,0.45,LWC V1.00 B64,2013-01-24 07:13:00,
2013-01-23 23:19:00,49.0,48.2,30.09,South,189,0.0,0.0,97,0.00,,,0.45,LWC V1.00 B64,2013-01-24 07:19:00,
2013-01-23 23:24:00,49.0,48.2,30.09,South,188,0.0,0.0,97,0.00,,,0.45,LWC V1.00 B64,2013-01-24 07:24:00,
2013-01-23 23:29:00,49.0,48.2,30.09,South,188,0.0,0.0,97,0.00,,,0.45,LWC V1.00 B64,2013-01-24 07:29:00,
2013-01-23 23:34:00,49.1,48.3,30.08,South,189,0.0,0.0,97,0.00,,,0.45,LWC V1.00 B64,2013-01-24 07:34:00,
2013-01-23 23:39:00,49.3,48.5,30.08,South,189,0.0,0.0,97,0.00,,,0.45,LWC V1.00 B64,2013-01-24 07:39:00,
2013-01-23 23:44:00,49.4,48.6,30.08,South,189,0.0,0.0,97,0.00,,,0.45,LWC V1.00 B64,2013-01-24 07:44:00,
2013-01-23 23:49:00,49.3,48.5,30.08,South,189,0.0,0.0,97,0.00,,,0.45,LWC V1.00 B64,2013-01-24 07:49:00,
2013-01-23 23:54:00,49.4,48.6,30.08,South,189,0.0,1.0,97,0.00,,,0.45,LWC V1.00 B64,2013-01-24 07:54:00,
2013-01-23 23:59:00,49.5,48.7,30.08,South,188,0.0,0.0,97,0.00,,,0.45,LWC V1.00 B64,2013-01-24 07:59:00,